createdAt,value
2022-08-12T00:02:07.629Z,97903.69
2022-08-12T00:04:54.573Z,97898.85
2022-08-12T00:07:42.131Z,97898.89
2022-08-12T00:10:28.497Z,97905.64
2022-08-12T00:13:15.023Z,97905.64
2022-08-12T00:16:03.947Z,97906.82
2022-08-12T00:18:50.568Z,97910.33
2022-08-12T00:21:38.393Z,97915.70
2022-08-12T00:24:26.513Z,97924.17
2022-08-12T00:27:13.932Z,97916.16
2022-08-12T00:30:01.363Z,97920.23
2022-08-12T00:32:56.759Z,97931.27
2022-08-12T00:35:44.380Z,97934.61
2022-08-12T00:38:31.563Z,97932.34
2022-08-12T00:41:19.117Z,97923.48
2022-08-12T00:43:48.598Z,97921.44
2022-08-12T00:46:32.154Z,97923.81
2022-08-12T00:49:02.135Z,97923.76
2022-08-12T00:51:49.384Z,97926.23
2022-08-12T00:54:19.403Z,97927.10
2022-08-12T00:56:49.020Z,97916.05
2022-08-12T00:59:18.594Z,97912.27
2022-08-12T01:02:10.924Z,97916.12
2022-08-12T01:04:57.942Z,97917.17
2022-08-12T01:07:47.569Z,97915.48
2022-08-12T01:10:34.533Z,97917.13
2022-08-12T01:13:18.579Z,97915.21
2022-08-12T01:15:52.938Z,97915.45
2022-08-12T01:18:23.562Z,97915.30
2022-08-12T01:21:13.580Z,97909.75
2022-08-12T01:23:47.699Z,97911.66
2022-08-12T01:26:23.487Z,97916.73
2022-08-12T01:28:59.992Z,97916.48
2022-08-12T01:31:29.780Z,97918.64
2022-08-12T01:34:03.571Z,97917.73
2022-08-12T01:36:40.247Z,97918.61
2022-08-12T01:39:09.713Z,97916.04
2022-08-12T01:41:52.093Z,97910.60
2022-08-12T01:44:23.284Z,97915.99
2022-08-12T01:47:04.178Z,97920.98
2022-08-12T01:49:53.911Z,97920.84
2022-08-12T01:52:44.893Z,97917.17
2022-08-12T01:55:16.151Z,97914.20
2022-08-12T01:57:58.948Z,97913.11
2022-08-12T02:00:55.158Z,97913.04
2022-08-12T02:04:02.830Z,97910.03
2022-08-12T02:07:07.361Z,97916.84
2022-08-12T02:10:50.719Z,97920.14
2022-08-12T02:13:42.011Z,97921.83
2022-08-12T02:16:35.346Z,97923.47
2022-08-12T02:19:22.932Z,97925.88
2022-08-12T02:22:20.990Z,97924.06
2022-08-12T02:24:50.945Z,97926.77
2022-08-12T02:27:22.086Z,97917.65
2022-08-12T02:29:50.459Z,97924.44
2022-08-12T02:32:18.952Z,97924.52
2022-08-12T02:34:47.597Z,97913.20
2022-08-12T02:37:17.909Z,97905.61
2022-08-12T02:39:49.878Z,97907.09
2022-08-12T02:42:23.581Z,97905.73
2022-08-12T02:44:55.785Z,97901.58
2022-08-12T02:47:58.381Z,97897.50
2022-08-12T02:50:20.598Z,97898.92
2022-08-12T02:52:52.940Z,97902.04
2022-08-12T02:55:34.320Z,97898.20
2022-08-12T02:58:09.108Z,97904.39
2022-08-12T03:00:41.744Z,97910.45
2022-08-12T03:03:13.626Z,97914.01
2022-08-12T03:05:49.029Z,97914.27
2022-08-12T03:08:32.808Z,97917.66
2022-08-12T03:11:42.781Z,97909.21
2022-08-12T03:14:19.964Z,97917.34
2022-08-12T03:16:55.681Z,97912.73
2022-08-12T03:19:24.881Z,97912.60
2022-08-12T03:22:08.764Z,97905.90
2022-08-12T03:24:38.993Z,97905.97
2022-08-12T03:27:09.582Z,97903.38
2022-08-12T03:29:43.355Z,97905.69
2022-08-12T03:32:36.425Z,97907.81
2022-08-12T03:35:07.901Z,97912.71
2022-08-12T03:37:37.531Z,97910.86
2022-08-12T03:40:08.986Z,97909.64
2022-08-12T03:42:52.072Z,97908.77
2022-08-12T03:45:52.006Z,97910.21
2022-08-12T03:48:39.445Z,97909.46
2022-08-12T03:51:26.327Z,97902.91
2022-08-12T03:54:12.722Z,97903.92
2022-08-12T03:56:59.041Z,97902.34
2022-08-12T03:59:47.618Z,97903.34
2022-08-12T04:02:16.675Z,97901.71
2022-08-12T04:04:45.754Z,97899.56
2022-08-12T04:07:16.447Z,97895.84
2022-08-12T04:09:46.459Z,97902.03
2022-08-12T04:12:33.697Z,97897.36
2022-08-12T04:15:03.063Z,97899.08
2022-08-12T04:17:32.073Z,97898.21
2022-08-12T04:20:00.349Z,97898.51
2022-08-12T04:22:30.778Z,97901.73
2022-08-12T04:25:02.995Z,97904.85
2022-08-12T04:27:32.562Z,97904.23
2022-08-12T04:30:30.213Z,97905.62
2022-08-12T04:32:54.038Z,97907.88
2022-08-12T04:35:22.225Z,97907.20
2022-08-12T04:38:00.295Z,97905.48
2022-08-12T04:40:32.609Z,97910.85
2022-08-12T04:43:01.673Z,97915.05
2022-08-12T04:45:33.174Z,97917.59
2022-08-12T04:48:04.548Z,97914.71
2022-08-12T04:50:35.836Z,97913.52
2022-08-12T04:53:08.414Z,97910.16
2022-08-12T04:55:38.758Z,97908.20
2022-08-12T04:58:10.395Z,97906.69
2022-08-12T05:00:39.266Z,97904.17
2022-08-12T05:03:08.248Z,97905.57
2022-08-12T05:05:40.320Z,97905.74
2022-08-12T05:08:16.306Z,97906.33
2022-08-12T05:10:46.612Z,97911.16
2022-08-12T05:13:26.174Z,97910.56
2022-08-12T05:16:04.432Z,97902.09
2022-08-12T05:18:39.493Z,97901.85
2022-08-12T05:21:09.458Z,97901.88
2022-08-12T05:23:39.457Z,97896.23
2022-08-12T05:26:07.576Z,97890.83
2022-08-12T05:28:37.184Z,97884.52
2022-08-12T05:31:05.496Z,97880.73
2022-08-12T05:33:41.131Z,97876.67
2022-08-12T05:36:14.869Z,97871.93
2022-08-12T05:38:56.853Z,97871.93
2022-08-12T05:41:29.551Z,97869.64
2022-08-12T05:44:17.758Z,97864.39
2022-08-12T05:46:45.961Z,97860.65
2022-08-12T05:49:14.306Z,97863.98
2022-08-12T05:51:44.026Z,97855.61
2022-08-12T05:54:12.357Z,97854.81
2022-08-12T05:56:41.694Z,97852.80
2022-08-12T05:59:12.456Z,97851.15
2022-08-12T06:02:10.636Z,97852.80
2022-08-12T06:04:34.303Z,97851.55
2022-08-12T06:07:02.624Z,97849.19
2022-08-12T06:09:50.859Z,97848.55
2022-08-12T06:12:23.400Z,97851.13
2022-08-12T06:14:55.166Z,97847.38
2022-08-12T06:17:26.361Z,97847.27
2022-08-12T06:20:26.001Z,97847.81
2022-08-12T06:22:44.962Z,97841.73
2022-08-12T06:25:17.375Z,97839.59
2022-08-12T06:28:06.739Z,97837.98
2022-08-12T06:30:39.424Z,97842.20
2022-08-12T06:33:22.602Z,97836.02
2022-08-12T06:35:57.364Z,97834.21
2022-08-12T06:38:29.363Z,97829.98
2022-08-12T06:41:18.489Z,97830.92
2022-08-12T06:44:06.951Z,97826.20
2022-08-12T06:46:39.552Z,97825.59
2022-08-12T06:49:09.799Z,97825.16
2022-08-12T06:51:38.063Z,97824.77
2022-08-12T06:54:07.766Z,97824.17
2022-08-12T06:59:26.727Z,97819.54
2022-08-12T07:01:55.793Z,97817.85
2022-08-12T07:04:39.902Z,97814.39
2022-08-12T07:07:11.270Z,97810.05
2022-08-12T07:10:05.260Z,97805.92
2022-08-12T07:12:32.769Z,97806.34
2022-08-12T07:15:02.330Z,97807.91
2022-08-12T07:17:37.986Z,97804.70
2022-08-12T07:20:13.733Z,97800.50
2022-08-12T07:23:00.746Z,97798.34
2022-08-12T07:25:37.513Z,97796.22
2022-08-12T07:28:20.084Z,97795.64
2022-08-12T07:30:53.596Z,97792.08
2022-08-12T07:33:25.846Z,97788.58
2022-08-12T07:35:56.347Z,97785.09
2022-08-12T07:38:30.753Z,97781.38
2022-08-12T07:41:08.249Z,97781.27
2022-08-12T07:43:54.077Z,97781.05
2022-08-12T07:46:28.737Z,97777.98
2022-08-12T07:49:02.022Z,97782.96
2022-08-12T07:51:32.766Z,97776.66
2022-08-12T07:54:05.593Z,97776.01
2022-08-12T07:56:35.943Z,97773.77
2022-08-12T07:59:05.770Z,97775.41
2022-08-12T08:01:38.432Z,97772.02
2022-08-12T08:04:32.998Z,97771.08
2022-08-12T08:07:13.350Z,97765.40
2022-08-12T08:09:45.729Z,97766.77
2022-08-12T08:12:44.949Z,97761.94
2022-08-12T08:16:02.849Z,97760.04
2022-08-12T08:18:27.648Z,97756.10
2022-08-12T08:21:05.905Z,97755.09
2022-08-12T08:23:56.062Z,97753.31
2022-08-12T08:26:27.246Z,97755.18
2022-08-12T08:28:56.621Z,97756.88
2022-08-12T08:31:25.755Z,97750.44
2022-08-12T08:34:04.226Z,97751.92
2022-08-12T08:36:39.804Z,97752.90
2022-08-12T08:39:09.612Z,97753.02
2022-08-12T08:42:16.029Z,97749.66
2022-08-12T08:44:58.206Z,97750.29
2022-08-12T08:47:30.139Z,97751.73
2022-08-12T08:50:01.377Z,97749.59
2022-08-12T08:52:40.214Z,97752.55
2022-08-12T08:55:20.865Z,97746.93
2022-08-12T08:58:03.961Z,97749.81
2022-08-12T09:00:51.561Z,97748.26
2022-08-12T09:07:17.069Z,97742.90
2022-08-12T09:10:30.931Z,97741.73
2022-08-12T09:16:09.636Z,97737.00
2022-08-12T09:18:41.222Z,97739.48
2022-08-12T09:21:10.801Z,97742.17
2022-08-12T09:23:59.322Z,97739.05
2022-08-12T09:30:10.107Z,97731.23
2022-08-12T09:32:56.349Z,97732.49
2022-08-12T09:35:02.381Z,97728.70
2022-08-12T09:37:55.201Z,97733.02
2022-08-12T09:41:01.739Z,97727.59
2022-08-12T09:43:28.753Z,97722.17
2022-08-12T09:46:19.494Z,97719.18
2022-08-12T09:48:56.805Z,97716.55
2022-08-12T09:51:37.363Z,97713.63
2022-08-12T09:54:30.775Z,97716.16
2022-08-12T09:56:59.903Z,97711.88
2022-08-12T10:00:16.848Z,97702.94
2022-08-12T10:02:41.856Z,97703.46
2022-08-12T10:05:13.743Z,97701.80
2022-08-12T10:07:46.270Z,97697.52
2022-08-12T10:10:25.079Z,97695.10
2022-08-12T10:13:34.441Z,97686.52
2022-08-12T10:16:22.148Z,97684.68
2022-08-12T10:18:57.927Z,97681.74
2022-08-12T10:21:36.088Z,97682.09
2022-08-12T10:24:19.973Z,97678.02
2022-08-12T10:27:08.905Z,97679.10
2022-08-12T10:30:38.700Z,97680.96
2022-08-12T10:32:44.038Z,97680.62
2022-08-12T10:35:16.093Z,97678.19
2022-08-12T10:38:32.091Z,97676.19
2022-08-12T10:40:59.777Z,97679.42
2022-08-12T10:43:56.005Z,97671.36
2022-08-12T10:46:31.289Z,97670.55
2022-08-12T10:49:06.785Z,97672.84
2022-08-12T10:52:04.112Z,97673.38
2022-08-12T10:54:43.043Z,97676.91
2022-08-12T10:57:17.877Z,97672.98
2022-08-12T11:00:31.261Z,97670.86
2022-08-12T11:04:26.007Z,97671.49
2022-08-12T11:07:05.632Z,97665.15
2022-08-12T11:08:37.714Z,97665.11
2022-08-12T11:11:13.679Z,97658.69
2022-08-12T11:13:48.318Z,97656.06
2022-08-12T11:16:21.752Z,97650.91
2022-08-12T11:18:56.843Z,97647.85
2022-08-12T11:21:58.492Z,97649.11
2022-08-12T11:24:34.336Z,97645.66
2022-08-12T11:27:07.968Z,97647.79
2022-08-12T11:30:00.570Z,97651.96
2022-08-12T11:32:31.329Z,97649.98
2022-08-12T11:35:11.480Z,97648.34
2022-08-12T11:37:58.241Z,97646.86
2022-08-12T11:40:29.093Z,97645.14
2022-08-12T11:43:19.364Z,97640.01
2022-08-12T11:45:53.380Z,97641.85
2022-08-12T11:48:27.157Z,97642.78
2022-08-12T11:50:57.291Z,97641.58
2022-08-12T11:53:59.964Z,97640.83
2022-08-12T11:56:19.196Z,97635.59
2022-08-12T12:01:58.664Z,97635.75
2022-08-12T12:02:02.529Z,97630.30
2022-08-12T12:04:29.119Z,97630.66
2022-08-12T12:07:07.302Z,97625.11
2022-08-12T12:09:52.586Z,97618.93
2022-08-12T12:12:25.127Z,97615.66
2022-08-12T12:14:56.014Z,97614.34
2022-08-12T12:17:38.248Z,97615.98
2022-08-12T12:20:11.475Z,97611.55
2022-08-12T12:22:45.439Z,97612.41
2022-08-12T12:25:19.766Z,97609.83
2022-08-12T12:28:05.096Z,97608.48
2022-08-12T12:30:36.441Z,97602.84
2022-08-12T12:33:07.553Z,97595.31
2022-08-12T12:36:06.473Z,97591.14
2022-08-12T12:38:30.336Z,97598.66
2022-08-12T12:40:58.730Z,97597.10
2022-08-12T12:43:28.939Z,97594.84
2022-08-12T12:46:11.323Z,97591.08
2022-08-12T12:48:44.303Z,97589.44
2022-08-12T12:51:48.277Z,97582.62
2022-08-12T12:54:09.883Z,97576.61
2022-08-12T12:56:43.170Z,97574.58
2022-08-12T12:59:55.434Z,97574.23
2022-08-12T13:02:07.756Z,97576.41
2022-08-12T13:04:38.466Z,97578.75
2022-08-12T13:07:08.484Z,97576.84
2022-08-12T13:09:38.259Z,97574.20
2022-08-12T13:12:10.513Z,97572.39
2022-08-12T13:14:41.976Z,97568.06
2022-08-12T13:17:14.897Z,97565.19
2022-08-12T13:19:50.067Z,97558.27
2022-08-12T13:22:23.554Z,97561.20
2022-08-12T13:24:59.009Z,97557.77
2022-08-12T13:27:35.503Z,97555.61
2022-08-12T13:30:12.623Z,97553.31
2022-08-12T13:32:57.325Z,97553.29
2022-08-12T13:35:33.207Z,97554.31
2022-08-12T13:38:15.236Z,97546.73
2022-08-12T13:40:58.627Z,97541.52
2022-08-12T13:43:41.292Z,97545.27
2022-08-12T13:46:20.397Z,97543.13
2022-08-12T13:48:54.367Z,97541.00
2022-08-12T13:51:24.757Z,97541.96
2022-08-12T13:53:59.175Z,97541.85
2022-08-12T13:56:34.882Z,97539.15
2022-08-12T13:59:08.632Z,97535.30
2022-08-12T14:01:40.632Z,97537.52
2022-08-12T14:04:12.645Z,97538.58
2022-08-12T14:07:02.639Z,97537.05
2022-08-12T14:09:58.764Z,97532.88
2022-08-12T14:12:54.061Z,97531.61
2022-08-12T14:15:31.192Z,97530.88
2022-08-12T14:18:16.316Z,97530.49
2022-08-12T14:20:52.340Z,97523.40
2022-08-12T14:24:01.020Z,97517.48
2022-08-12T14:26:12.168Z,97519.06
2022-08-12T14:28:45.183Z,97515.54
2022-08-12T14:31:31.882Z,97509.19
2022-08-12T14:34:05.107Z,97506.70
2022-08-12T14:36:37.074Z,97506.75
2022-08-12T14:39:07.076Z,97503.14
2022-08-12T14:41:36.947Z,97501.45
2022-08-12T14:44:59.817Z,97502.77
2022-08-12T14:47:08.948Z,97502.46
2022-08-12T14:50:37.503Z,97505.64
2022-08-12T14:53:04.540Z,97502.69
2022-08-12T14:58:07.949Z,97495.55
2022-08-12T15:00:56.540Z,97492.99
2022-08-12T15:03:52.668Z,97495.77
2022-08-12T15:06:39.844Z,97496.02
2022-08-12T15:09:09.344Z,97495.42
2022-08-12T15:11:54.881Z,97489.62
2022-08-12T15:14:27.505Z,97491.14
2022-08-12T15:17:01.014Z,97488.80
2022-08-12T15:20:27.929Z,97486.05
2022-08-12T15:22:37.136Z,97484.77
2022-08-12T15:25:10.298Z,97486.66
2022-08-12T15:28:11.062Z,97484.34
2022-08-12T15:30:40.725Z,97481.70
2022-08-12T15:33:12.879Z,97486.08
2022-08-12T15:35:52.209Z,97485.17
2022-08-12T15:38:31.583Z,97482.76
2022-08-12T15:41:02.017Z,97479.79
2022-08-12T15:43:51.960Z,97483.15
2022-08-12T15:46:21.148Z,97483.05
2022-08-12T15:48:54.898Z,97478.86
2022-08-12T15:51:59.510Z,97475.09
2022-08-12T15:54:33.803Z,97476.21
2022-08-12T15:57:07.769Z,97473.71
2022-08-12T16:00:00.215Z,97468.14
2022-08-12T16:02:29.383Z,97467.98
2022-08-12T16:04:58.810Z,97470.24
2022-08-12T16:07:30.178Z,97469.44
2022-08-12T16:10:06.664Z,97461.16
2022-08-12T16:12:55.151Z,97462.52
2022-08-12T16:15:26.696Z,97463.47
2022-08-12T16:18:14.961Z,97460.20
2022-08-12T16:20:48.506Z,97459.81
2022-08-12T16:23:35.776Z,97457.06
2022-08-12T16:26:14.550Z,97455.33
2022-08-12T16:28:47.416Z,97455.41
2022-08-12T16:31:23.185Z,97457.65
2022-08-12T16:33:59.666Z,97455.61
2022-08-12T16:36:30.009Z,97451.96
2022-08-12T16:39:01.632Z,97455.79
2022-08-12T16:41:39.855Z,97454.02
2022-08-12T16:44:09.559Z,97448.32
2022-08-12T16:46:42.475Z,97447.39
2022-08-12T16:49:26.529Z,97445.64
2022-08-12T16:52:08.438Z,97443.48
2022-08-12T16:54:43.149Z,97442.02
2022-08-12T16:57:13.685Z,97441.63
2022-08-12T16:59:53.495Z,97438.34
2022-08-12T17:02:33.741Z,97441.97
2022-08-12T17:05:07.281Z,97442.98
2022-08-12T17:07:43.844Z,97448.88
2022-08-12T17:10:18.462Z,97451.89
2022-08-12T17:13:10.101Z,97456.02
2022-08-12T17:15:41.398Z,97461.70
2022-08-12T17:18:43.684Z,97461.08
2022-08-12T17:21:40.744Z,97460.05
2022-08-12T17:24:15.130Z,97457.68
2022-08-12T17:26:49.429Z,97460.69
2022-08-12T17:29:31.876Z,97462.05
2022-08-12T17:32:14.582Z,97467.76
2022-08-12T17:35:01.660Z,97465.79
2022-08-12T17:37:30.180Z,97463.42
2022-08-12T17:40:12.698Z,97468.19
2022-08-12T17:42:48.117Z,97468.42
2022-08-12T17:45:19.703Z,97465.75
2022-08-12T17:48:04.729Z,97470.89
2022-08-12T17:50:36.088Z,97469.67
2022-08-12T17:53:05.522Z,97469.23
2022-08-12T17:55:44.393Z,97473.48
2022-08-12T17:58:17.936Z,97473.59
2022-08-12T18:00:50.645Z,97474.58
2022-08-12T18:04:04.710Z,97475.61
2022-08-12T18:06:13.689Z,97481.45
2022-08-12T18:08:54.740Z,97478.73
2022-08-12T18:12:03.601Z,97481.15
2022-08-12T18:14:31.872Z,97480.60
2022-08-12T18:17:02.602Z,97482.58
2022-08-12T18:20:04.013Z,97484.70
2022-08-12T18:22:30.294Z,97483.42
2022-08-12T18:25:04.158Z,97488.26
2022-08-12T18:27:44.181Z,97491.17
2022-08-12T18:30:28.810Z,97493.38
2022-08-12T18:33:03.965Z,97496.79
2022-08-12T18:35:47.335Z,97501.64
2022-08-12T18:38:24.612Z,97505.72
2022-08-12T18:41:21.869Z,97502.69
2022-08-12T18:44:06.867Z,97512.13
2022-08-12T18:46:56.758Z,97518.94
2022-08-12T18:49:34.967Z,97516.70
2022-08-12T18:52:08.694Z,97525.64
2022-08-12T18:54:49.309Z,97524.64
2022-08-12T18:58:05.828Z,97527.17
2022-08-12T19:00:21.247Z,97530.98
2022-08-12T19:02:53.210Z,97533.51
2022-08-12T19:05:53.572Z,97536.94
2022-08-12T19:08:15.428Z,97540.02
2022-08-12T19:10:50.305Z,97541.02
2022-08-12T19:13:39.737Z,97538.81
2022-08-12T19:16:11.491Z,97532.21
2022-08-12T19:18:45.193Z,97534.06
2022-08-12T19:21:16.010Z,97535.50
2022-08-12T19:24:05.433Z,97537.95
2022-08-12T19:26:35.653Z,97542.98
2022-08-12T19:29:07.055Z,97539.86
2022-08-12T19:31:58.373Z,97540.91
2022-08-12T19:38:02.635Z,97541.20
2022-08-12T19:40:30.699Z,97536.77
2022-08-12T19:43:19.361Z,97531.31
2022-08-12T19:45:51.635Z,97531.06
2022-08-12T19:48:22.668Z,97531.13
2022-08-12T19:50:57.599Z,97532.77
2022-08-12T19:53:27.641Z,97532.60
2022-08-12T19:55:58.723Z,97528.52
2022-08-12T19:58:27.138Z,97526.51
2022-08-12T20:00:56.075Z,97528.77
2022-08-12T20:03:38.462Z,97530.14
2022-08-12T20:06:15.325Z,97526.29
2022-08-12T20:08:53.806Z,97525.75
2022-08-12T20:12:14.316Z,97524.84
2022-08-12T20:14:18.678Z,97526.90
2022-08-12T20:16:53.098Z,97525.95
2022-08-12T20:19:52.115Z,97523.39
2022-08-12T20:22:24.494Z,97519.30
2022-08-12T20:25:00.899Z,97516.41
2022-08-12T20:28:04.584Z,97516.42
2022-08-12T20:30:37.759Z,97516.05
2022-08-12T20:33:17.566Z,97514.31
2022-08-12T20:36:13.424Z,97515.04
2022-08-12T20:38:42.220Z,97504.93
2022-08-12T20:41:17.392Z,97511.39
2022-08-12T20:43:52.541Z,97511.35
2022-08-12T20:46:23.375Z,97510.96
2022-08-12T20:48:57.730Z,97515.69
2022-08-12T20:51:55.382Z,97519.79
2022-08-12T20:54:19.712Z,97520.05
2022-08-12T20:56:48.622Z,97528.07
2022-08-12T20:59:21.548Z,97531.73
2022-08-12T21:01:53.739Z,97534.10
2022-08-12T21:04:43.644Z,97533.71
2022-08-12T21:07:14.455Z,97528.33
2022-08-12T21:09:47.742Z,97522.66
2022-08-12T21:12:28.071Z,97523.67
2022-08-12T21:15:23.837Z,97524.17
2022-08-12T21:18:08.109Z,97530.58
2022-08-12T21:20:38.407Z,97533.23
2022-08-12T21:23:07.872Z,97541.55
2022-08-12T21:25:45.014Z,97544.64
2022-08-12T21:28:14.715Z,97539.15
2022-08-12T21:31:11.406Z,97535.27
2022-08-12T21:33:32.190Z,97542.01
2022-08-12T21:36:22.512Z,97548.27
2022-08-12T21:38:54.041Z,97542.84
2022-08-12T21:41:24.236Z,97541.35
2022-08-12T21:43:52.560Z,97543.01
2022-08-12T21:46:35.337Z,97543.45
2022-08-12T21:49:05.567Z,97546.64
2022-08-12T21:51:49.537Z,97546.56
2022-08-12T21:54:22.000Z,97540.75
2022-08-12T21:56:53.661Z,97539.45
2022-08-12T21:59:22.899Z,97541.30
2022-08-12T22:01:53.674Z,97547.61
2022-08-12T22:04:41.033Z,97548.16
2022-08-12T22:07:18.739Z,97551.20
2022-08-12T22:09:47.241Z,97552.59
2022-08-12T22:12:37.622Z,97547.88
2022-08-12T22:15:09.968Z,97543.21
2022-08-12T22:17:55.414Z,97542.91
2022-08-12T22:20:29.422Z,97544.94
2022-08-12T22:23:00.474Z,97541.83
2022-08-12T22:25:31.288Z,97535.75
2022-08-12T22:28:24.508Z,97535.60
2022-08-12T22:31:11.107Z,97543.02
2022-08-12T22:33:53.959Z,97538.77
2022-08-12T22:36:29.333Z,97537.48
2022-08-12T22:38:59.045Z,97531.00
2022-08-12T22:41:45.973Z,97532.63
2022-08-12T22:44:32.421Z,97530.87
2022-08-12T22:47:53.428Z,97531.35
2022-08-12T22:50:28.902Z,97530.77
2022-08-12T22:53:16.362Z,97528.33
2022-08-12T22:55:59.753Z,97523.03
2022-08-12T22:58:40.401Z,97521.91
2022-08-12T23:01:11.229Z,97523.49
2022-08-12T23:03:49.580Z,97526.44
2022-08-12T23:06:24.494Z,97532.32
2022-08-12T23:08:54.919Z,97522.05
2022-08-12T23:11:25.539Z,97520.52
2022-08-12T23:14:03.712Z,97516.17
2022-08-12T23:16:34.196Z,97516.98
2022-08-12T23:19:10.613Z,97524.08
2022-08-12T23:22:05.589Z,97519.85
2022-08-12T23:24:55.564Z,97516.08
2022-08-12T23:27:50.311Z,97517.01
2022-08-12T23:30:31.723Z,97519.20
2022-08-12T23:33:20.279Z,97517.03
2022-08-12T23:36:02.543Z,97513.73
2022-08-12T23:38:34.817Z,97510.25
2022-08-12T23:41:06.104Z,97501.69
2022-08-12T23:43:41.001Z,97501.00
2022-08-12T23:46:18.534Z,97494.21
2022-08-12T23:48:50.451Z,97495.58
2022-08-12T23:51:25.457Z,97495.42
2022-08-12T23:54:02.066Z,97492.20
2022-08-12T23:56:33.614Z,97491.81
2022-08-12T23:59:06.915Z,97492.86
